sensor_id;sensor_type;location;lat;lon;timestamp;temperature;humidity
74294;DHT22;64044;59.904;10.738;2023-07-02T00:00:30;21.30;51.00
74294;DHT22;64044;59.904;10.738;2023-07-02T00:02:56;21.30;50.80
74294;DHT22;64044;59.904;10.738;2023-07-02T00:05:22;21.30;50.80
74294;DHT22;64044;59.904;10.738;2023-07-02T00:07:48;21.30;50.90
74294;DHT22;64044;59.904;10.738;2023-07-02T00:10:14;21.30;51.30
74294;DHT22;64044;59.904;10.738;2023-07-02T00:12:39;21.30;51.20
74294;DHT22;64044;59.904;10.738;2023-07-02T00:15:05;21.30;51.30
74294;DHT22;64044;59.904;10.738;2023-07-02T00:17:31;21.30;51.30
74294;DHT22;64044;59.904;10.738;2023-07-02T00:19:57;21.30;51.30
74294;DHT22;64044;59.904;10.738;2023-07-02T00:22:23;21.30;51.40
74294;DHT22;64044;59.904;10.738;2023-07-02T00:24:49;21.30;51.30
74294;DHT22;64044;59.904;10.738;2023-07-02T00:27:16;21.30;51.40
74294;DHT22;64044;59.904;10.738;2023-07-02T00:29:42;21.30;51.50
74294;DHT22;64044;59.904;10.738;2023-07-02T00:32:07;21.30;51.40
74294;DHT22;64044;59.904;10.738;2023-07-02T00:34:33;21.30;51.50
74294;DHT22;64044;59.904;10.738;2023-07-02T00:36:59;21.30;51.60
74294;DHT22;64044;59.904;10.738;2023-07-02T00:39:25;21.30;51.50
74294;DHT22;64044;59.904;10.738;2023-07-02T00:41:50;21.30;51.50
74294;DHT22;64044;59.904;10.738;2023-07-02T00:44:16;21.30;51.60
74294;DHT22;64044;59.904;10.738;2023-07-02T00:46:42;21.20;51.60
74294;DHT22;64044;59.904;10.738;2023-07-02T00:49:09;21.20;51.70
74294;DHT22;64044;59.904;10.738;2023-07-02T00:51:35;21.20;52.00
74294;DHT22;64044;59.904;10.738;2023-07-02T00:54:02;21.20;51.90
74294;DHT22;64044;59.904;10.738;2023-07-02T00:56:28;21.20;52.00
74294;DHT22;64044;59.904;10.738;2023-07-02T00:58:55;21.20;52.00
74294;DHT22;64044;59.904;10.738;2023-07-02T01:01:25;21.20;52.00
74294;DHT22;64044;59.904;10.738;2023-07-02T01:04:03;21.20;52.10
74294;DHT22;64044;59.904;10.738;2023-07-02T01:06:34;21.20;52.00
74294;DHT22;64044;59.904;10.738;2023-07-02T01:09:05;21.20;52.20
74294;DHT22;64044;59.904;10.738;2023-07-02T01:11:31;21.10;52.20
74294;DHT22;64044;59.904;10.738;2023-07-02T01:14:08;21.10;52.00
74294;DHT22;64044;59.904;10.738;2023-07-02T01:16:36;21.10;52.00
74294;DHT22;64044;59.904;10.738;2023-07-02T01:19:04;21.10;52.10
74294;DHT22;64044;59.904;10.738;2023-07-02T01:21:34;21.10;52.20
74294;DHT22;64044;59.904;10.738;2023-07-02T01:24:00;21.10;52.10
74294;DHT22;64044;59.904;10.738;2023-07-02T01:26:31;21.00;52.10
74294;DHT22;64044;59.904;10.738;2023-07-02T01:29:16;21.00;52.40
74294;DHT22;64044;59.904;10.738;2023-07-02T01:31:42;21.00;52.20
74294;DHT22;64044;59.904;10.738;2023-07-02T01:34:08;21.00;52.20
74294;DHT22;64044;59.904;10.738;2023-07-02T01:36:35;20.90;52.30
74294;DHT22;64044;59.904;10.738;2023-07-02T01:39:00;21.00;52.40
74294;DHT22;64044;59.904;10.738;2023-07-02T01:41:26;20.90;52.40
74294;DHT22;64044;59.904;10.738;2023-07-02T01:43:51;20.90;52.30
74294;DHT22;64044;59.904;10.738;2023-07-02T01:46:17;20.90;52.40
74294;DHT22;64044;59.904;10.738;2023-07-02T01:48:43;20.90;52.40
74294;DHT22;64044;59.904;10.738;2023-07-02T01:51:08;20.90;52.50
74294;DHT22;64044;59.904;10.738;2023-07-02T01:53:34;20.90;52.50
74294;DHT22;64044;59.904;10.738;2023-07-02T01:56:00;20.90;52.60
74294;DHT22;64044;59.904;10.738;2023-07-02T01:58:26;20.90;52.50
74294;DHT22;64044;59.904;10.738;2023-07-02T02:00:51;20.90;52.50
74294;DHT22;64044;59.904;10.738;2023-07-02T02:03:17;20.80;52.50
74294;DHT22;64044;59.904;10.738;2023-07-02T02:05:43;20.90;52.50
74294;DHT22;64044;59.904;10.738;2023-07-02T02:08:08;20.80;52.60
74294;DHT22;64044;59.904;10.738;2023-07-02T02:10:34;20.80;52.90
74294;DHT22;64044;59.904;10.738;2023-07-02T02:13:00;20.80;53.40
74294;DHT22;64044;59.904;10.738;2023-07-02T02:15:26;20.80;53.70
74294;DHT22;64044;59.904;10.738;2023-07-02T02:17:51;20.80;53.80
74294;DHT22;64044;59.904;10.738;2023-07-02T02:20:18;20.80;54.10
74294;DHT22;64044;59.904;10.738;2023-07-02T02:22:43;20.70;54.30
74294;DHT22;64044;59.904;10.738;2023-07-02T02:25:09;20.60;54.40
74294;DHT22;64044;59.904;10.738;2023-07-02T02:27:35;20.60;54.40
74294;DHT22;64044;59.904;10.738;2023-07-02T02:30:01;20.50;54.70
74294;DHT22;64044;59.904;10.738;2023-07-02T02:32:26;20.50;55.20
74294;DHT22;64044;59.904;10.738;2023-07-02T02:34:52;20.40;55.40
74294;DHT22;64044;59.904;10.738;2023-07-02T02:37:20;20.40;55.80
74294;DHT22;64044;59.904;10.738;2023-07-02T02:39:47;20.30;56.10
74294;DHT22;64044;59.904;10.738;2023-07-02T02:42:12;20.20;56.10
74294;DHT22;64044;59.904;10.738;2023-07-02T02:44:38;20.10;56.20
74294;DHT22;64044;59.904;10.738;2023-07-02T02:47:04;20.10;56.70
74294;DHT22;64044;59.904;10.738;2023-07-02T02:49:31;20.10;56.90
74294;DHT22;64044;59.904;10.738;2023-07-02T02:51:57;20.00;57.20
74294;DHT22;64044;59.904;10.738;2023-07-02T02:54:22;20.00;57.40
74294;DHT22;64044;59.904;10.738;2023-07-02T02:56:48;19.90;57.70
74294;DHT22;64044;59.904;10.738;2023-07-02T02:59:14;19.90;57.60
74294;DHT22;64044;59.904;10.738;2023-07-02T03:01:39;19.80;57.90
74294;DHT22;64044;59.904;10.738;2023-07-02T03:04:05;19.80;58.10
74294;DHT22;64044;59.904;10.738;2023-07-02T03:06:33;19.70;58.00
74294;DHT22;64044;59.904;10.738;2023-07-02T03:08:59;19.70;58.90
74294;DHT22;64044;59.904;10.738;2023-07-02T03:11:25;19.70;58.50
74294;DHT22;64044;59.904;10.738;2023-07-02T03:13:51;19.70;58.80
74294;DHT22;64044;59.904;10.738;2023-07-02T03:16:16;19.70;59.20
74294;DHT22;64044;59.904;10.738;2023-07-02T03:18:42;19.70;59.30
74294;DHT22;64044;59.904;10.738;2023-07-02T03:21:08;19.60;59.10
74294;DHT22;64044;59.904;10.738;2023-07-02T03:23:35;19.60;59.40
74294;DHT22;64044;59.904;10.738;2023-07-02T03:26:00;19.60;59.30
74294;DHT22;64044;59.904;10.738;2023-07-02T03:28:26;19.60;59.40
74294;DHT22;64044;59.904;10.738;2023-07-02T03:30:52;19.60;59.70
74294;DHT22;64044;59.904;10.738;2023-07-02T03:33:18;19.60;59.40
74294;DHT22;64044;59.904;10.738;2023-07-02T03:35:43;19.60;59.50
74294;DHT22;64044;59.904;10.738;2023-07-02T03:38:09;19.60;59.50
74294;DHT22;64044;59.904;10.738;2023-07-02T03:40:35;19.50;59.60
74294;DHT22;64044;59.904;10.738;2023-07-02T03:43:00;19.50;59.80
74294;DHT22;64044;59.904;10.738;2023-07-02T03:45:26;19.50;59.60
74294;DHT22;64044;59.904;10.738;2023-07-02T03:47:52;19.60;59.70
74294;DHT22;64044;59.904;10.738;2023-07-02T03:50:18;19.50;59.80
74294;DHT22;64044;59.904;10.738;2023-07-02T03:52:43;19.50;59.80
74294;DHT22;64044;59.904;10.738;2023-07-02T03:55:09;19.50;59.80
74294;DHT22;64044;59.904;10.738;2023-07-02T03:57:35;19.50;59.90
74294;DHT22;64044;59.904;10.738;2023-07-02T04:00:01;19.50;60.10
74294;DHT22;64044;59.904;10.738;2023-07-02T04:02:26;19.50;60.10
74294;DHT22;64044;59.904;10.738;2023-07-02T04:04:52;19.50;60.20
74294;DHT22;64044;59.904;10.738;2023-07-02T04:07:18;19.50;60.20
74294;DHT22;64044;59.904;10.738;2023-07-02T04:09:43;19.50;60.50
74294;DHT22;64044;59.904;10.738;2023-07-02T04:12:09;19.50;60.20
74294;DHT22;64044;59.904;10.738;2023-07-02T04:14:35;19.50;60.40
74294;DHT22;64044;59.904;10.738;2023-07-02T04:17:02;19.40;60.40
74294;DHT22;64044;59.904;10.738;2023-07-02T04:19:29;19.40;60.50
74294;DHT22;64044;59.904;10.738;2023-07-02T04:21:54;19.40;60.50
74294;DHT22;64044;59.904;10.738;2023-07-02T04:24:20;19.40;60.20
74294;DHT22;64044;59.904;10.738;2023-07-02T04:26:46;19.40;60.40
74294;DHT22;64044;59.904;10.738;2023-07-02T04:29:11;19.40;60.70
74294;DHT22;64044;59.904;10.738;2023-07-02T04:31:37;19.40;60.70
74294;DHT22;64044;59.904;10.738;2023-07-02T04:34:03;19.40;61.00
74294;DHT22;64044;59.904;10.738;2023-07-02T04:36:31;19.40;60.60
74294;DHT22;64044;59.904;10.738;2023-07-02T04:38:57;19.40;60.70
74294;DHT22;64044;59.904;10.738;2023-07-02T04:41:22;19.40;60.70
74294;DHT22;64044;59.904;10.738;2023-07-02T04:43:48;19.40;60.80
74294;DHT22;64044;59.904;10.738;2023-07-02T04:46:14;19.40;60.80
74294;DHT22;64044;59.904;10.738;2023-07-02T04:48:39;19.40;60.90
74294;DHT22;64044;59.904;10.738;2023-07-02T04:51:05;19.30;61.20
74294;DHT22;64044;59.904;10.738;2023-07-02T04:53:31;19.30;61.20
74294;DHT22;64044;59.904;10.738;2023-07-02T04:55:57;19.30;61.60
74294;DHT22;64044;59.904;10.738;2023-07-02T04:58:23;19.30;61.60
74294;DHT22;64044;59.904;10.738;2023-07-02T05:00:48;19.30;61.60
74294;DHT22;64044;59.904;10.738;2023-07-02T05:03:14;19.30;61.80
74294;DHT22;64044;59.904;10.738;2023-07-02T05:05:40;19.30;62.20
74294;DHT22;64044;59.904;10.738;2023-07-02T05:08:05;19.30;61.80
74294;DHT22;64044;59.904;10.738;2023-07-02T05:10:31;19.30;61.60
74294;DHT22;64044;59.904;10.738;2023-07-02T05:12:57;19.30;61.60
74294;DHT22;64044;59.904;10.738;2023-07-02T05:15:24;19.30;61.60
74294;DHT22;64044;59.904;10.738;2023-07-02T05:18:15;19.30;61.60
74294;DHT22;64044;59.904;10.738;2023-07-02T05:20:41;19.40;61.60
74294;DHT22;64044;59.904;10.738;2023-07-02T05:23:06;19.30;61.50
74294;DHT22;64044;59.904;10.738;2023-07-02T05:25:32;19.40;61.60
74294;DHT22;64044;59.904;10.738;2023-07-02T05:27:59;19.40;62.00
74294;DHT22;64044;59.904;10.738;2023-07-02T05:30:24;19.40;61.80
74294;DHT22;64044;59.904;10.738;2023-07-02T05:32:50;19.40;61.80
74294;DHT22;64044;59.904;10.738;2023-07-02T05:35:16;19.40;61.80
74294;DHT22;64044;59.904;10.738;2023-07-02T05:37:42;19.50;62.10
74294;DHT22;64044;59.904;10.738;2023-07-02T05:40:08;19.50;62.00
74294;DHT22;64044;59.904;10.738;2023-07-02T05:42:34;19.50;61.80
74294;DHT22;64044;59.904;10.738;2023-07-02T05:45:00;19.50;61.80
74294;DHT22;64044;59.904;10.738;2023-07-02T05:47:25;19.60;61.60
74294;DHT22;64044;59.904;10.738;2023-07-02T05:49:51;19.50;61.60
74294;DHT22;64044;59.904;10.738;2023-07-02T05:52:17;19.60;61.70
74294;DHT22;64044;59.904;10.738;2023-07-02T05:54:44;19.60;61.70
74294;DHT22;64044;59.904;10.738;2023-07-02T05:57:10;19.60;61.70
74294;DHT22;64044;59.904;10.738;2023-07-02T05:59:37;19.60;62.60
74294;DHT22;64044;59.904;10.738;2023-07-02T06:02:03;19.70;61.80
74294;DHT22;64044;59.904;10.738;2023-07-02T06:04:28;19.70;62.00
74294;DHT22;64044;59.904;10.738;2023-07-02T06:06:54;19.70;62.20
74294;DHT22;64044;59.904;10.738;2023-07-02T06:09:20;19.70;61.90
74294;DHT22;64044;59.904;10.738;2023-07-02T06:11:46;19.70;61.80
74294;DHT22;64044;59.904;10.738;2023-07-02T06:14:11;19.70;61.90
74294;DHT22;64044;59.904;10.738;2023-07-02T06:16:37;19.80;61.70
74294;DHT22;64044;59.904;10.738;2023-07-02T06:19:03;19.80;61.90
74294;DHT22;64044;59.904;10.738;2023-07-02T06:21:28;19.90;61.90
74294;DHT22;64044;59.904;10.738;2023-07-02T06:23:56;19.90;62.10
74294;DHT22;64044;59.904;10.738;2023-07-02T06:26:23;20.00;62.20
74294;DHT22;64044;59.904;10.738;2023-07-02T06:28:49;20.00;61.90
74294;DHT22;64044;59.904;10.738;2023-07-02T06:31:15;20.10;62.00
74294;DHT22;64044;59.904;10.738;2023-07-02T06:33:40;20.20;61.90
74294;DHT22;64044;59.904;10.738;2023-07-02T06:36:07;20.20;61.50
74294;DHT22;64044;59.904;10.738;2023-07-02T06:38:33;20.30;61.50
74294;DHT22;64044;59.904;10.738;2023-07-02T06:40:59;20.40;62.20
74294;DHT22;64044;59.904;10.738;2023-07-02T06:43:24;20.50;61.20
74294;DHT22;64044;59.904;10.738;2023-07-02T06:45:50;20.50;61.20
74294;DHT22;64044;59.904;10.738;2023-07-02T06:48:16;20.60;61.00
74294;DHT22;64044;59.904;10.738;2023-07-02T06:50:44;20.70;60.90
74294;DHT22;64044;59.904;10.738;2023-07-02T06:53:10;20.80;60.80
74294;DHT22;64044;59.904;10.738;2023-07-02T06:55:36;20.90;60.40
74294;DHT22;64044;59.904;10.738;2023-07-02T06:58:02;21.00;60.00
74294;DHT22;64044;59.904;10.738;2023-07-02T07:00:31;21.00;59.70
74294;DHT22;64044;59.904;10.738;2023-07-02T07:02:57;21.10;59.50
74294;DHT22;64044;59.904;10.738;2023-07-02T07:05:23;21.10;59.40
74294;DHT22;64044;59.904;10.738;2023-07-02T07:07:49;21.10;59.30
74294;DHT22;64044;59.904;10.738;2023-07-02T07:10:15;21.20;59.10
74294;DHT22;64044;59.904;10.738;2023-07-02T07:12:40;21.20;59.10
74294;DHT22;64044;59.904;10.738;2023-07-02T07:15:06;21.30;59.20
74294;DHT22;64044;59.904;10.738;2023-07-02T07:17:32;21.20;59.30
74294;DHT22;64044;59.904;10.738;2023-07-02T07:19:58;21.30;59.30
74294;DHT22;64044;59.904;10.738;2023-07-02T07:22:23;21.40;59.20
74294;DHT22;64044;59.904;10.738;2023-07-02T07:24:49;21.50;59.00
74294;DHT22;64044;59.904;10.738;2023-07-02T07:27:15;21.60;58.80
74294;DHT22;64044;59.904;10.738;2023-07-02T07:29:41;21.70;58.70
74294;DHT22;64044;59.904;10.738;2023-07-02T07:32:07;21.80;58.60
74294;DHT22;64044;59.904;10.738;2023-07-02T07:34:32;21.80;58.40
74294;DHT22;64044;59.904;10.738;2023-07-02T07:36:58;21.90;58.20
74294;DHT22;64044;59.904;10.738;2023-07-02T07:39:24;22.00;57.90
74294;DHT22;64044;59.904;10.738;2023-07-02T07:41:49;22.10;57.70
74294;DHT22;64044;59.904;10.738;2023-07-02T07:44:15;22.10;57.50
74294;DHT22;64044;59.904;10.738;2023-07-02T07:46:41;22.20;57.30
74294;DHT22;64044;59.904;10.738;2023-07-02T07:49:07;22.30;57.20
74294;DHT22;64044;59.904;10.738;2023-07-02T07:51:32;22.30;57.10
74294;DHT22;64044;59.904;10.738;2023-07-02T07:54:01;22.40;57.00
74294;DHT22;64044;59.904;10.738;2023-07-02T07:56:27;22.40;56.70
74294;DHT22;64044;59.904;10.738;2023-07-02T07:58:53;22.40;56.60
74294;DHT22;64044;59.904;10.738;2023-07-02T08:01:19;22.50;56.60
74294;DHT22;64044;59.904;10.738;2023-07-02T08:03:46;22.50;56.50
74294;DHT22;64044;59.904;10.738;2023-07-02T08:06:12;22.50;56.40
74294;DHT22;64044;59.904;10.738;2023-07-02T08:08:37;22.60;56.20
74294;DHT22;64044;59.904;10.738;2023-07-02T08:11:03;22.60;56.20
74294;DHT22;64044;59.904;10.738;2023-07-02T08:13:29;22.60;56.00
74294;DHT22;64044;59.904;10.738;2023-07-02T08:15:55;22.60;55.90
74294;DHT22;64044;59.904;10.738;2023-07-02T08:18:21;22.60;55.80
74294;DHT22;64044;59.904;10.738;2023-07-02T08:20:46;22.60;55.70
74294;DHT22;64044;59.904;10.738;2023-07-02T08:23:12;22.60;55.50
74294;DHT22;64044;59.904;10.738;2023-07-02T08:25:38;22.50;55.50
74294;DHT22;64044;59.904;10.738;2023-07-02T08:28:04;22.50;55.60
74294;DHT22;64044;59.904;10.738;2023-07-02T08:30:29;22.50;55.60
74294;DHT22;64044;59.904;10.738;2023-07-02T08:32:55;22.50;55.60
74294;DHT22;64044;59.904;10.738;2023-07-02T08:35:22;22.50;55.60
74294;DHT22;64044;59.904;10.738;2023-07-02T08:37:48;22.50;55.60
74294;DHT22;64044;59.904;10.738;2023-07-02T08:40:20;22.50;55.70
74294;DHT22;64044;59.904;10.738;2023-07-02T08:42:46;22.50;55.80
74294;DHT22;64044;59.904;10.738;2023-07-02T08:45:16;22.50;55.80
74294;DHT22;64044;59.904;10.738;2023-07-02T08:47:43;22.50;55.90
74294;DHT22;64044;59.904;10.738;2023-07-02T08:50:10;22.50;55.90
74294;DHT22;64044;59.904;10.738;2023-07-02T08:52:35;22.60;56.10
74294;DHT22;64044;59.904;10.738;2023-07-02T08:55:01;22.60;56.20
74294;DHT22;64044;59.904;10.738;2023-07-02T08:57:27;22.70;56.40
74294;DHT22;64044;59.904;10.738;2023-07-02T08:59:58;22.70;56.50
74294;DHT22;64044;59.904;10.738;2023-07-02T09:02:37;22.70;56.50
74294;DHT22;64044;59.904;10.738;2023-07-02T09:05:03;22.70;56.90
74294;DHT22;64044;59.904;10.738;2023-07-02T09:07:30;22.80;56.40
74294;DHT22;64044;59.904;10.738;2023-07-02T09:09:56;22.80;56.10
74294;DHT22;64044;59.904;10.738;2023-07-02T09:12:29;22.80;55.90
74294;DHT22;64044;59.904;10.738;2023-07-02T09:15:01;22.70;56.00
74294;DHT22;64044;59.904;10.738;2023-07-02T09:17:33;22.60;56.00
74294;DHT22;64044;59.904;10.738;2023-07-02T09:20:00;22.60;56.10
74294;DHT22;64044;59.904;10.738;2023-07-02T09:22:26;22.50;56.00
74294;DHT22;64044;59.904;10.738;2023-07-02T09:25:17;22.40;56.30
74294;DHT22;64044;59.904;10.738;2023-07-02T09:27:43;22.30;57.20
74294;DHT22;64044;59.904;10.738;2023-07-02T09:30:14;22.30;56.80
74294;DHT22;64044;59.904;10.738;2023-07-02T09:32:44;22.20;56.80
74294;DHT22;64044;59.904;10.738;2023-07-02T09:35:10;22.20;57.00
74294;DHT22;64044;59.904;10.738;2023-07-02T09:37:36;22.20;57.70
74294;DHT22;64044;59.904;10.738;2023-07-02T09:40:03;22.20;58.30
74294;DHT22;64044;59.904;10.738;2023-07-02T09:42:33;22.20;58.60
74294;DHT22;64044;59.904;10.738;2023-07-02T09:45:00;22.40;59.00
74294;DHT22;64044;59.904;10.738;2023-07-02T09:47:28;22.40;59.00
74294;DHT22;64044;59.904;10.738;2023-07-02T09:49:59;22.60;59.00
74294;DHT22;64044;59.904;10.738;2023-07-02T09:52:27;22.70;59.00
74294;DHT22;64044;59.904;10.738;2023-07-02T09:54:53;22.90;58.50
74294;DHT22;64044;59.904;10.738;2023-07-02T09:57:19;23.00;57.70
74294;DHT22;64044;59.904;10.738;2023-07-02T09:59:45;23.20;57.20
74294;DHT22;64044;59.904;10.738;2023-07-02T10:02:12;23.30;56.90
74294;DHT22;64044;59.904;10.738;2023-07-02T10:04:46;23.50;56.80
74294;DHT22;64044;59.904;10.738;2023-07-02T10:07:13;23.60;56.90
74294;DHT22;64044;59.904;10.738;2023-07-02T10:09:50;23.70;56.50
74294;DHT22;64044;59.904;10.738;2023-07-02T10:12:20;23.80;56.30
74294;DHT22;64044;59.904;10.738;2023-07-02T10:14:48;23.90;55.50
74294;DHT22;64044;59.904;10.738;2023-07-02T10:17:30;23.90;55.10
74294;DHT22;64044;59.904;10.738;2023-07-02T10:20:01;23.90;54.00
74294;DHT22;64044;59.904;10.738;2023-07-02T10:22:51;23.90;54.10
74294;DHT22;64044;59.904;10.738;2023-07-02T10:25:32;23.80;53.40
74294;DHT22;64044;59.904;10.738;2023-07-02T10:27:59;23.80;53.40
74294;DHT22;64044;59.904;10.738;2023-07-02T10:30:33;23.80;53.50
74294;DHT22;64044;59.904;10.738;2023-07-02T10:33:16;23.70;53.30
74294;DHT22;64044;59.904;10.738;2023-07-02T10:35:46;23.50;53.10
74294;DHT22;64044;59.904;10.738;2023-07-02T10:38:19;23.40;53.70
74294;DHT22;64044;59.904;10.738;2023-07-02T10:40:45;23.20;53.70
74294;DHT22;64044;59.904;10.738;2023-07-02T10:43:11;23.00;53.90
74294;DHT22;64044;59.904;10.738;2023-07-02T10:45:37;22.70;54.30
74294;DHT22;64044;59.904;10.738;2023-07-02T10:48:04;22.50;54.60
74294;DHT22;64044;59.904;10.738;2023-07-02T10:50:33;22.20;55.20
74294;DHT22;64044;59.904;10.738;2023-07-02T10:52:59;21.90;55.60
74294;DHT22;64044;59.904;10.738;2023-07-02T10:55:26;21.70;55.90
74294;DHT22;64044;59.904;10.738;2023-07-02T10:58:06;21.50;56.40
74294;DHT22;64044;59.904;10.738;2023-07-02T11:00:32;21.30;57.20
74294;DHT22;64044;59.904;10.738;2023-07-02T11:02:59;21.20;57.20
74294;DHT22;64044;59.904;10.738;2023-07-02T11:05:25;21.00;57.50
74294;DHT22;64044;59.904;10.738;2023-07-02T11:07:51;20.90;58.10
74294;DHT22;64044;59.904;10.738;2023-07-02T11:10:22;20.90;59.00
74294;DHT22;64044;59.904;10.738;2023-07-02T11:12:49;20.90;58.40
74294;DHT22;64044;59.904;10.738;2023-07-02T11:15:15;20.90;59.00
74294;DHT22;64044;59.904;10.738;2023-07-02T11:17:43;20.90;59.00
74294;DHT22;64044;59.904;10.738;2023-07-02T11:20:10;21.00;59.10
74294;DHT22;64044;59.904;10.738;2023-07-02T11:22:37;21.10;59.20
74294;DHT22;64044;59.904;10.738;2023-07-02T11:25:22;21.20;59.30
74294;DHT22;64044;59.904;10.738;2023-07-02T11:27:47;21.30;61.00
74294;DHT22;64044;59.904;10.738;2023-07-02T11:30:13;21.50;59.50
74294;DHT22;64044;59.904;10.738;2023-07-02T11:32:53;21.60;59.20
74294;DHT22;64044;59.904;10.738;2023-07-02T11:35:20;21.80;58.50
74294;DHT22;64044;59.904;10.738;2023-07-02T11:37:46;22.00;58.60
74294;DHT22;64044;59.904;10.738;2023-07-02T11:40:14;22.10;58.00
74294;DHT22;64044;59.904;10.738;2023-07-02T11:42:42;22.30;57.10
74294;DHT22;64044;59.904;10.738;2023-07-02T11:45:09;22.40;56.40
74294;DHT22;64044;59.904;10.738;2023-07-02T11:47:35;22.60;56.00
74294;DHT22;64044;59.904;10.738;2023-07-02T11:50:01;22.70;55.70
74294;DHT22;64044;59.904;10.738;2023-07-02T11:52:26;22.80;55.60
74294;DHT22;64044;59.904;10.738;2023-07-02T11:54:52;22.80;56.00
74294;DHT22;64044;59.904;10.738;2023-07-02T11:57:18;22.90;55.80
74294;DHT22;64044;59.904;10.738;2023-07-02T11:59:45;22.90;55.50
74294;DHT22;64044;59.904;10.738;2023-07-02T12:02:10;23.00;55.30
74294;DHT22;64044;59.904;10.738;2023-07-02T12:04:36;23.00;54.90
74294;DHT22;64044;59.904;10.738;2023-07-02T12:07:02;23.00;54.80
74294;DHT22;64044;59.904;10.738;2023-07-02T12:09:29;23.10;55.00
74294;DHT22;64044;59.904;10.738;2023-07-02T12:11:55;23.10;55.20
74294;DHT22;64044;59.904;10.738;2023-07-02T12:14:20;23.20;55.10
74294;DHT22;64044;59.904;10.738;2023-07-02T12:16:46;23.20;54.80
74294;DHT22;64044;59.904;10.738;2023-07-02T12:19:12;23.20;54.70
74294;DHT22;64044;59.904;10.738;2023-07-02T12:21:37;23.30;54.90
74294;DHT22;64044;59.904;10.738;2023-07-02T12:24:03;23.30;55.20
74294;DHT22;64044;59.904;10.738;2023-07-02T12:26:37;23.50;55.50
74294;DHT22;64044;59.904;10.738;2023-07-02T12:29:03;23.60;55.70
74294;DHT22;64044;59.904;10.738;2023-07-02T12:31:30;23.80;56.50
74294;DHT22;64044;59.904;10.738;2023-07-02T12:33:55;24.00;56.60
74294;DHT22;64044;59.904;10.738;2023-07-02T12:36:21;24.30;56.30
74294;DHT22;64044;59.904;10.738;2023-07-02T12:38:47;24.50;55.80
74294;DHT22;64044;59.904;10.738;2023-07-02T12:41:12;24.70;55.20
74294;DHT22;64044;59.904;10.738;2023-07-02T12:43:38;24.80;54.50
74294;DHT22;64044;59.904;10.738;2023-07-02T12:46:05;25.00;53.80
74294;DHT22;64044;59.904;10.738;2023-07-02T12:48:31;25.10;53.20
74294;DHT22;64044;59.904;10.738;2023-07-02T12:50:58;25.10;52.70
74294;DHT22;64044;59.904;10.738;2023-07-02T12:53:25;25.10;52.50
74294;DHT22;64044;59.904;10.738;2023-07-02T12:55:51;25.10;52.20
74294;DHT22;64044;59.904;10.738;2023-07-02T12:58:17;25.00;52.10
74294;DHT22;64044;59.904;10.738;2023-07-02T13:00:42;24.90;52.00
74294;DHT22;64044;59.904;10.738;2023-07-02T13:03:12;24.80;52.10
74294;DHT22;64044;59.904;10.738;2023-07-02T13:05:38;24.60;51.60
74294;DHT22;64044;59.904;10.738;2023-07-02T13:08:04;24.50;51.60
74294;DHT22;64044;59.904;10.738;2023-07-02T13:10:30;24.30;51.80
74294;DHT22;64044;59.904;10.738;2023-07-02T13:12:57;24.10;51.70
74294;DHT22;64044;59.904;10.738;2023-07-02T13:15:23;23.90;52.00
74294;DHT22;64044;59.904;10.738;2023-07-02T13:17:49;23.70;52.40
74294;DHT22;64044;59.904;10.738;2023-07-02T13:20:14;23.50;53.10
74294;DHT22;64044;59.904;10.738;2023-07-02T13:22:40;23.20;53.30
74294;DHT22;64044;59.904;10.738;2023-07-02T13:25:06;23.00;53.90
74294;DHT22;64044;59.904;10.738;2023-07-02T13:27:32;22.90;54.30
74294;DHT22;64044;59.904;10.738;2023-07-02T13:29:58;22.60;54.90
74294;DHT22;64044;59.904;10.738;2023-07-02T13:32:24;22.50;55.30
74294;DHT22;64044;59.904;10.738;2023-07-02T13:34:50;22.30;55.60
74294;DHT22;64044;59.904;10.738;2023-07-02T13:37:15;22.10;56.10
74294;DHT22;64044;59.904;10.738;2023-07-02T13:39:47;22.10;56.40
74294;DHT22;64044;59.904;10.738;2023-07-02T13:42:14;22.00;57.20
74294;DHT22;64044;59.904;10.738;2023-07-02T13:44:40;21.90;57.20
74294;DHT22;64044;59.904;10.738;2023-07-02T13:47:06;21.90;57.40
74294;DHT22;64044;59.904;10.738;2023-07-02T13:49:32;22.00;58.00
74294;DHT22;64044;59.904;10.738;2023-07-02T13:51:58;22.10;58.40
74294;DHT22;64044;59.904;10.738;2023-07-02T13:54:24;22.20;58.60
74294;DHT22;64044;59.904;10.738;2023-07-02T13:56:50;22.40;59.00
74294;DHT22;64044;59.904;10.738;2023-07-02T13:59:18;22.70;58.80
74294;DHT22;64044;59.904;10.738;2023-07-02T14:01:44;23.00;58.10
74294;DHT22;64044;59.904;10.738;2023-07-02T14:04:10;23.20;57.90
74294;DHT22;64044;59.904;10.738;2023-07-02T14:06:36;23.70;57.10
74294;DHT22;64044;59.904;10.738;2023-07-02T14:09:02;23.90;56.00
74294;DHT22;64044;59.904;10.738;2023-07-02T14:11:29;24.20;54.80
74294;DHT22;64044;59.904;10.738;2023-07-02T14:13:55;24.30;53.00
74294;DHT22;64044;59.904;10.738;2023-07-02T14:16:21;24.50;52.10
74294;DHT22;64044;59.904;10.738;2023-07-02T14:18:47;24.60;52.20
74294;DHT22;64044;59.904;10.738;2023-07-02T14:21:13;24.60;52.00
74294;DHT22;64044;59.904;10.738;2023-07-02T14:23:39;24.60;51.90
74294;DHT22;64044;59.904;10.738;2023-07-02T14:26:05;24.60;51.20
74294;DHT22;64044;59.904;10.738;2023-07-02T14:28:31;24.50;51.00
74294;DHT22;64044;59.904;10.738;2023-07-02T14:31:02;24.50;51.00
74294;DHT22;64044;59.904;10.738;2023-07-02T14:33:29;24.30;50.90
74294;DHT22;64044;59.904;10.738;2023-07-02T14:35:55;24.30;51.10
74294;DHT22;64044;59.904;10.738;2023-07-02T14:38:21;24.20;51.20
74294;DHT22;64044;59.904;10.738;2023-07-02T14:40:50;24.10;51.60
74294;DHT22;64044;59.904;10.738;2023-07-02T14:43:17;24.00;52.10
74294;DHT22;64044;59.904;10.738;2023-07-02T14:45:51;23.90;52.60
74294;DHT22;64044;59.904;10.738;2023-07-02T14:48:17;23.80;52.90
74294;DHT22;64044;59.904;10.738;2023-07-02T14:50:51;23.80;52.90
74294;DHT22;64044;59.904;10.738;2023-07-02T14:53:18;23.80;53.10
74294;DHT22;64044;59.904;10.738;2023-07-02T14:55:44;23.70;53.30
74294;DHT22;64044;59.904;10.738;2023-07-02T14:58:15;23.70;53.20
74294;DHT22;64044;59.904;10.738;2023-07-02T15:00:49;23.70;53.00
74294;DHT22;64044;59.904;10.738;2023-07-02T15:03:15;23.70;53.40
74294;DHT22;64044;59.904;10.738;2023-07-02T15:05:42;23.60;53.40
74294;DHT22;64044;59.904;10.738;2023-07-02T15:08:08;23.60;53.80
74294;DHT22;64044;59.904;10.738;2023-07-02T15:10:35;23.60;53.80
74294;DHT22;64044;59.904;10.738;2023-07-02T15:13:07;23.60;53.60